Time;durP1;ratioP1;P1;durP2;ratioP2;P2;SDS_P1;SDS_P2;PMS_P1;PMS_P2;Temp;Humidity;BMP_temperature;BMP_pressure;BME280_temperature;BME280_humidity;BME280_pressure;Samples;Min_cycle;Max_cycle;Signal;HPM_P1;HPM_P2
2022/07/10 00:04:26;;;;;;;5.20;3.40;;;;;;;;;;10361666;28;20481;-57
2022/07/10 00:09:28;;;;;;;4.68;2.55;;;;;;;;;;10361368;28;20033;-63
2022/07/10 00:14:28;;;;;;;6.43;2.80;;;;;;;;;;10362706;28;20026;-56
2022/07/10 00:19:29;;;;;;;4.88;2.60;;;;;;;;;;10359041;28;20025;-56
2022/07/10 00:24:30;;;;;;;4.53;2.63;;;;;;;;;;10358092;28;20456;-49
2022/07/10 00:29:30;;;;;;;7.60;2.50;;;;;;;;;;10355504;28;20033;-55
2022/07/10 00:34:31;;;;;;;4.43;2.78;;;;;;;;;;10355179;28;20030;-53
2022/07/10 00:39:31;;;;;;;6.78;2.63;;;;;;;;;;10357405;28;20080;-58
2022/07/10 00:44:32;;;;;;;5.75;2.53;;;;;;;;;;10362227;28;20030;-49
2022/07/10 00:49:34;;;;;;;10.57;2.47;;;;;;;;;;10352250;28;20038;-51
2022/07/10 00:54:36;;;;;;;9.82;2.15;;;;;;;;;;10338532;28;20038;-50
2022/07/10 00:59:37;;;;;;;5.35;2.08;;;;;;;;;;10364030;28;20025;-58
2022/07/10 01:04:38;;;;;;;8.07;2.70;;;;;;;;;;10353471;28;20034;-51
2022/07/10 01:09:38;;;;;;;6.10;2.60;;;;;;;;;;10365913;28;20125;-54
2022/07/10 01:14:39;;;;;;;9.93;2.63;;;;;;;;;;10357862;28;20040;-52
2022/07/10 01:19:40;;;;;;;5.68;2.70;;;;;;;;;;10364665;28;20038;-53
2022/07/10 01:24:41;;;;;;;6.88;2.60;;;;;;;;;;10364775;28;20042;-53
2022/07/10 01:29:42;;;;;;;9.20;3.03;;;;;;;;;;10367787;28;20466;-50
2022/07/10 01:34:42;;;;;;;4.68;2.85;;;;;;;;;;10360456;28;20061;-51
2022/07/10 01:39:43;;;;;;;9.65;2.40;;;;;;;;;;10359595;28;20049;-47
2022/07/10 01:44:43;;;;;;;6.72;2.90;;;;;;;;;;10367828;28;20459;-51
2022/07/10 01:49:44;;;;;;;10.05;2.60;;;;;;;;;;10363631;28;20119;-49
2022/07/10 01:54:45;;;;;;;5.38;2.92;;;;;;;;;;10359274;28;20026;-50
2022/07/10 01:59:45;;;;;;;4.53;2.47;;;;;;;;;;10347014;28;20293;-49
2022/07/10 02:04:46;;;;;;;4.90;2.65;;;;;;;;;;10362212;28;20129;-48
2022/07/10 02:09:47;;;;;;;6.13;2.97;;;;;;;;;;10361427;28;20164;-48
2022/07/10 02:14:47;;;;;;;7.80;2.88;;;;;;;;;;10364775;28;20038;-51
2022/07/10 02:19:48;;;;;;;9.88;3.13;;;;;;;;;;10367287;28;20061;-47
2022/07/10 02:24:49;;;;;;;6.10;3.10;;;;;;;;;;10358731;28;20547;-46
2022/07/10 02:29:49;;;;;;;10.30;3.35;;;;;;;;;;10361329;28;20038;-48
2022/07/10 02:34:50;;;;;;;6.50;3.20;;;;;;;;;;10355453;28;20057;-55
2022/07/10 02:39:50;;;;;;;4.45;3.22;;;;;;;;;;10353460;28;20026;-55
2022/07/10 02:44:51;;;;;;;6.47;3.50;;;;;;;;;;10350758;28;20046;-55
2022/07/10 02:49:52;;;;;;;5.20;3.17;;;;;;;;;;10364180;28;20034;-48
2022/07/10 02:54:52;;;;;;;5.03;2.92;;;;;;;;;;10352299;28;20030;-49
2022/07/10 02:59:53;;;;;;;10.68;3.30;;;;;;;;;;10363104;28;20080;-49
2022/07/10 03:04:54;;;;;;;6.47;3.17;;;;;;;;;;10354140;28;20034;-50
2022/07/10 03:09:54;;;;;;;7.97;3.20;;;;;;;;;;10359648;28;20398;-62
2022/07/10 03:14:55;;;;;;;4.70;2.80;;;;;;;;;;10360558;28;20029;-54
2022/07/10 03:19:56;;;;;;;9.25;3.00;;;;;;;;;;10364282;28;20033;-48
2022/07/10 03:24:56;;;;;;;4.55;2.78;;;;;;;;;;10360133;28;20057;-47
2022/07/10 03:29:57;;;;;;;7.25;3.28;;;;;;;;;;10366374;28;20030;-47
2022/07/10 03:34:58;;;;;;;8.63;2.45;;;;;;;;;;10359058;28;20022;-48
2022/07/10 03:39:58;;;;;;;10.48;2.78;;;;;;;;;;10336311;28;20401;-49
2022/07/10 03:44:59;;;;;;;8.88;2.88;;;;;;;;;;10335709;28;20045;-52
2022/07/10 03:50:00;;;;;;;7.38;3.20;;;;;;;;;;10336623;28;20030;-52
2022/07/10 03:55:01;;;;;;;6.50;2.85;;;;;;;;;;10346125;28;20481;-49
2022/07/10 04:00:02;;;;;;;4.95;2.80;;;;;;;;;;10365699;28;20079;-53
2022/07/10 04:05:06;;;;;;;9.02;3.20;;;;;;;;;;10356766;28;20053;-53
2022/07/10 04:10:09;;;;;;;7.13;2.92;;;;;;;;;;10360135;28;20030;-48
2022/07/10 04:15:09;;;;;;;13.77;3.00;;;;;;;;;;10358678;28;20026;-59
2022/07/10 04:20:11;;;;;;;8.45;3.60;;;;;;;;;;10356596;28;20366;-50
2022/07/10 04:25:12;;;;;;;10.32;3.10;;;;;;;;;;10360585;28;20041;-50
2022/07/10 04:30:12;;;;;;;4.28;3.03;;;;;;;;;;10350851;28;20061;-48
2022/07/10 04:35:13;;;;;;;8.82;3.13;;;;;;;;;;10362019;28;20464;-48
2022/07/10 04:40:14;;;;;;;5.95;3.17;;;;;;;;;;10364972;28;20030;-50
2022/07/10 04:45:14;;;;;;;5.00;3.47;;;;;;;;;;10359899;28;20485;-50
2022/07/10 04:50:15;;;;;;;9.27;3.03;;;;;;;;;;10369491;28;20481;-53
2022/07/10 04:55:16;;;;;;;4.95;2.95;;;;;;;;;;10360926;28;20384;-56
2022/07/10 05:00:16;;;;;;;5.05;2.90;;;;;;;;;;10369381;28;20037;-58
2022/07/10 05:05:17;;;;;;;7.43;2.70;;;;;;;;;;10365249;28;20524;-61
2022/07/10 05:10:18;;;;;;;11.02;3.00;;;;;;;;;;10365299;28;20048;-53
2022/07/10 05:15:18;;;;;;;4.72;2.38;;;;;;;;;;10366952;28;20045;-58
2022/07/10 05:20:19;;;;;;;7.80;2.90;;;;;;;;;;10364646;28;20033;-52
2022/07/10 05:25:19;;;;;;;8.25;2.58;;;;;;;;;;10362336;23;20061;-57
2022/07/10 05:30:20;;;;;;;4.72;2.80;;;;;;;;;;10359292;28;20397;-59
2022/07/10 05:35:21;;;;;;;7.72;3.05;;;;;;;;;;10344352;28;20022;-59
2022/07/10 05:40:21;;;;;;;6.55;2.75;;;;;;;;;;10321277;28;20041;-56
2022/07/10 05:45:22;;;;;;;12.27;2.70;;;;;;;;;;10327677;28;20258;-59
2022/07/10 05:50:23;;;;;;;7.40;2.85;;;;;;;;;;10328540;28;20038;-59
2022/07/10 05:55:23;;;;;;;11.80;3.05;;;;;;;;;;10323366;28;20038;-59
2022/07/10 06:00:24;;;;;;;4.85;2.50;;;;;;;;;;10336256;28;20022;-58
2022/07/10 06:05:25;;;;;;;8.60;2.50;;;;;;;;;;10333172;28;20081;-59
2022/07/10 06:10:25;;;;;;;3.42;2.20;;;;;;;;;;10334608;28;20038;-59
2022/07/10 06:15:26;;;;;;;7.45;2.30;;;;;;;;;;10327492;28;20030;-58
2022/07/10 06:20:27;;;;;;;5.13;2.17;;;;;;;;;;10325362;28;20178;-59
2022/07/10 06:25:27;;;;;;;5.60;2.30;;;;;;;;;;10321446;28;20101;-61
2022/07/10 06:30:28;;;;;;;3.88;1.92;;;;;;;;;;10325637;28;20414;-60
2022/07/10 06:35:29;;;;;;;6.32;1.92;;;;;;;;;;10324520;28;20037;-58
2022/07/10 06:40:31;;;;;;;3.83;1.65;;;;;;;;;;10325501;28;20264;-57
2022/07/10 06:45:32;;;;;;;7.25;1.40;;;;;;;;;;10322134;28;20113;-58
2022/07/10 06:50:34;;;;;;;2.38;1.10;;;;;;;;;;10315164;28;20027;-58
2022/07/10 06:55:35;;;;;;;3.83;1.10;;;;;;;;;;10325029;28;20497;-57
2022/07/10 07:00:35;;;;;;;10.48;1.80;;;;;;;;;;10327187;28;20033;-57
2022/07/10 07:05:36;;;;;;;6.28;1.42;;;;;;;;;;10326740;28;20034;-57
2022/07/10 07:10:37;;;;;;;5.63;1.45;;;;;;;;;;10326733;28;20041;-58
2022/07/10 07:15:41;;;;;;;2.97;1.38;;;;;;;;;;10318918;28;20081;-58
2022/07/10 07:26:01;;;;;;;5.43;1.40;;;;;;;;;;10299239;28;20042;-57
2022/07/10 07:31:02;;;;;;;4.57;1.30;;;;;;;;;;10325958;28;20031;-58
2022/07/10 07:36:03;;;;;;;4.05;1.50;;;;;;;;;;10324576;28;20074;-57
2022/07/10 07:41:03;;;;;;;3.10;1.10;;;;;;;;;;10325574;28;20484;-57
2022/07/10 07:46:04;;;;;;;6.30;1.60;;;;;;;;;;10297651;28;20043;-57
2022/07/10 07:51:05;;;;;;;7.25;3.10;;;;;;;;;;10302435;28;20038;-57
2022/07/10 07:56:06;;;;;;;5.55;2.72;;;;;;;;;;10328357;28;20089;-57
2022/07/10 08:01:06;;;;;;;8.23;2.10;;;;;;;;;;10327928;28;20113;-57
2022/07/10 08:06:08;;;;;;;6.53;1.48;;;;;;;;;;10322415;28;20031;-58
2022/07/10 08:11:08;;;;;;;5.93;1.40;;;;;;;;;;10324317;28;20042;-57
2022/07/10 08:16:09;;;;;;;5.00;1.35;;;;;;;;;;10327668;28;20047;-58
2022/07/10 08:21:09;;;;;;;2.70;1.38;;;;;;;;;;10333442;28;20026;-59
2022/07/10 08:26:10;;;;;;;8.23;1.60;;;;;;;;;;10332878;28;20078;-58
2022/07/10 08:31:11;;;;;;;2.65;1.20;;;;;;;;;;10346717;28;20023;-58
2022/07/10 08:36:11;;;;;;;1.83;1.27;;;;;;;;;;10338571;28;20054;-59
2022/07/10 08:41:13;;;;;;;8.15;1.45;;;;;;;;;;10355235;28;20026;-58
2022/07/10 08:46:14;;;;;;;3.58;1.30;;;;;;;;;;10330618;28;20035;-58
2022/07/10 08:51:41;;;;;;;2.70;1.23;;;;;;;;;;10339865;28;20104;-56
2022/07/10 08:56:42;;;;;;;3.22;1.20;;;;;;;;;;10326029;28;20062;-59
2022/07/10 09:01:43;;;;;;;2.67;1.63;;;;;;;;;;10347541;28;20374;-58
2022/07/10 09:06:44;;;;;;;4.40;1.48;;;;;;;;;;10340380;28;20027;-59
2022/07/10 09:11:45;;;;;;;3.97;1.30;;;;;;;;;;10345807;28;20033;-58
2022/07/10 09:16:50;;;;;;;1.73;1.30;;;;;;;;;;10338036;28;20022;-57
2022/07/10 09:21:52;;;;;;;4.95;1.52;;;;;;;;;;10347025;28;20029;-58
2022/07/10 09:26:56;;;;;;;1.42;1.25;;;;;;;;;;10332017;28;20054;-58
2022/07/10 09:32:00;;;;;;;2.42;1.30;;;;;;;;;;10327833;28;20110;-58
2022/07/10 09:37:23;;;;;;;1.40;1.30;;;;;;;;;;10333176;28;20246;-57
2022/07/10 09:42:37;;;;;;;2.28;1.27;;;;;;;;;;10331322;28;20509;-56
2022/07/10 09:48:04;;;;;;;3.67;1.02;;;;;;;;;;10329435;28;20408;-57
2022/07/10 09:53:09;;;;;;;5.00;1.10;;;;;;;;;;10320418;28;20027;-53
2022/07/10 09:58:10;;;;;;;4.25;1.10;;;;;;;;;;10331337;28;20466;-57
2022/07/10 10:03:14;;;;;;;1.25;1.00;;;;;;;;;;10332070;28;20019;-58
2022/07/10 10:08:52;;;;;;;6.18;1.30;;;;;;;;;;10328251;28;20034;-57
2022/07/10 10:13:53;;;;;;;2.47;1.02;;;;;;;;;;10324477;28;20497;-58
2022/07/10 10:24:16;;;;;;;4.10;1.05;;;;;;;;;;10336074;28;20042;-58
2022/07/10 10:29:17;;;;;;;1.52;1.13;;;;;;;;;;10333372;28;20133;-57
2022/07/10 10:34:44;;;;;;;3.40;0.82;;;;;;;;;;10329023;28;20027;-54
2022/07/10 10:39:55;;;;;;;5.50;1.10;;;;;;;;;;10324140;28;20435;-55
2022/07/10 10:45:22;;;;;;;1.55;1.05;;;;;;;;;;10321189;28;20056;-55
2022/07/10 10:50:42;;;;;;;1.35;0.90;;;;;;;;;;10321453;28;20030;-56
2022/07/10 10:56:18;;;;;;;6.32;1.30;;;;;;;;;;10318643;28;20045;-54
2022/07/10 11:01:21;;;;;;;4.50;1.42;;;;;;;;;;10330966;28;20054;-54
2022/07/10 11:06:39;;;;;;;3.38;1.50;;;;;;;;;;10330878;28;20038;-55
2022/07/10 11:11:40;;;;;;;;;;;;;;;;;;10325670;28;20033;-55
2022/07/10 11:16:47;;;;;;;5.18;1.25;;;;;;;;;;10325104;28;19944;-53
2022/07/10 11:22:12;;;;;;;5.25;1.33;;;;;;;;;;10324171;28;20424;-53
2022/07/10 11:27:47;;;;;;;4.45;1.10;;;;;;;;;;10301158;28;20050;-56
2022/07/10 11:32:48;;;;;;;4.45;1.25;;;;;;;;;;10330111;28;20570;-52
2022/07/10 11:37:53;;;;;;;2.08;1.00;;;;;;;;;;10323899;28;20529;-54
2022/07/10 11:42:55;;;;;;;1.50;0.98;;;;;;;;;;10324000;28;20034;-51
2022/07/10 11:47:57;;;;;;;2.47;1.10;;;;;;;;;;10325643;28;20050;-56
2022/07/10 11:52:59;;;;;;;4.07;1.60;;;;;;;;;;10317601;28;20034;-56
2022/07/10 11:58:00;;;;;;;2.30;1.17;;;;;;;;;;10325377;28;20493;-55
2022/07/10 12:03:21;;;;;;;4.97;1.60;;;;;;;;;;10332319;28;20185;-56
2022/07/10 12:08:22;;;;;;;1.90;1.25;;;;;;;;;;10307907;28;20082;-54
2022/07/10 12:13:23;;;;;;;2.00;0.90;;;;;;;;;;10331489;28;20077;-56
2022/07/10 12:18:24;;;;;;;3.25;1.13;;;;;;;;;;10329841;28;20077;-58
2022/07/10 12:23:25;;;;;;;2.42;1.15;;;;;;;;;;10325835;28;20035;-56
2022/07/10 12:28:25;;;;;;;8.77;1.42;;;;;;;;;;10340320;28;20030;-57
2022/07/10 12:33:26;;;;;;;1.38;1.00;;;;;;;;;;10324231;28;20034;-56
2022/07/10 12:38:34;;;;;;;3.03;1.00;;;;;;;;;;10322677;28;20045;-55
2022/07/10 12:43:34;;;;;;;;;;;;;;;;;;10323641;28;20591;-55
2022/07/10 12:48:35;;;;;;;2.60;1.00;;;;;;;;;;10319643;28;20037;-56
2022/07/10 12:53:46;;;;;;;3.08;1.30;;;;;;;;;;10322549;28;20108;-57
2022/07/10 12:58:46;;;;;;;3.47;1.42;;;;;;;;;;10330846;28;20034;-56
2022/07/10 13:03:47;;;;;;;2.50;0.80;;;;;;;;;;10306658;28;20029;-57
2022/07/10 13:08:47;;;;;;;2.15;0.80;;;;;;;;;;10304346;28;20034;-57
2022/07/10 13:13:49;;;;;;;2.47;1.33;;;;;;;;;;10305565;28;20023;-58
2022/07/10 13:18:49;;;;;;;5.00;1.35;;;;;;;;;;10303508;28;20019;-57
2022/07/10 13:23:50;;;;;;;3.33;1.20;;;;;;;;;;10299041;28;20128;-57
2022/07/10 13:28:51;;;;;;;1.15;0.93;;;;;;;;;;10308631;28;20041;-57
2022/07/10 13:33:52;;;;;;;1.13;0.80;;;;;;;;;;10312684;28;20062;-57
2022/07/10 13:38:52;;;;;;;2.95;1.15;;;;;;;;;;10300989;28;20173;-56
2022/07/10 13:43:53;;;;;;;2.03;0.90;;;;;;;;;;10300005;28;20076;-56
2022/07/10 13:48:54;;;;;;;4.78;1.20;;;;;;;;;;10322496;28;20080;-57
2022/07/10 13:53:54;;;;;;;3.58;1.00;;;;;;;;;;10327287;28;20269;-57
2022/07/10 13:58:55;;;;;;;5.93;1.23;;;;;;;;;;10328995;28;20482;-57
2022/07/10 14:03:56;;;;;;;11.95;1.63;;;;;;;;;;10325572;28;20157;-57
2022/07/10 14:08:56;;;;;;;9.20;1.33;;;;;;;;;;10329327;28;20041;-56
2022/07/10 14:13:58;;;;;;;5.88;1.40;;;;;;;;;;10332056;28;20042;-57
2022/07/10 14:18:58;;;;;;;3.25;1.20;;;;;;;;;;10330181;28;20041;-57
2022/07/10 14:23:59;;;;;;;5.03;1.98;;;;;;;;;;10330413;28;20042;-56
2022/07/10 14:29:01;;;;;;;4.63;1.52;;;;;;;;;;10325079;28;20031;-56
2022/07/10 14:34:02;;;;;;;4.80;1.38;;;;;;;;;;10318843;28;20081;-56
2022/07/10 14:39:03;;;;;;;4.18;1.30;;;;;;;;;;10316694;28;20030;-55
2022/07/10 14:44:06;;;;;;;4.13;1.30;;;;;;;;;;10341470;28;20038;-56
2022/07/10 14:49:06;;;;;;;4.30;1.30;;;;;;;;;;10346340;28;20030;-56
2022/07/10 14:54:07;;;;;;;4.80;1.20;;;;;;;;;;10326098;28;20481;-55
2022/07/10 14:59:08;;;;;;;1.80;1.13;;;;;;;;;;10329324;28;20081;-57
2022/07/10 15:04:09;;;;;;;5.07;1.55;;;;;;;;;;10328932;28;20117;-56
2022/07/10 15:09:09;;;;;;;6.65;1.55;;;;;;;;;;10318787;28;20038;-56
2022/07/10 15:14:10;;;;;;;9.25;1.52;;;;;;;;;;10317550;28;20486;-58
2022/07/10 15:19:11;;;;;;;4.47;1.45;;;;;;;;;;10320368;28;20029;-58
2022/07/10 15:24:12;;;;;;;3.42;1.38;;;;;;;;;;10334693;28;20129;-58
2022/07/10 15:29:13;;;;;;;4.03;1.20;;;;;;;;;;10326561;28;20040;-58
2022/07/10 15:34:14;;;;;;;7.85;1.40;;;;;;;;;;10320298;28;20061;-58
2022/07/10 15:39:15;;;;;;;5.68;1.30;;;;;;;;;;10324197;28;20022;-57
2022/07/10 15:44:15;;;;;;;3.55;1.33;;;;;;;;;;10326052;28;20108;-57
2022/07/10 15:49:16;;;;;;;1.98;1.00;;;;;;;;;;10326150;28;20389;-57
2022/07/10 15:54:18;;;;;;;2.83;1.15;;;;;;;;;;10325666;28;20030;-57
2022/07/10 15:59:22;;;;;;;4.80;1.10;;;;;;;;;;10325558;28;20493;-57
2022/07/10 16:04:24;;;;;;;5.30;1.33;;;;;;;;;;10325920;28;20493;-57
2022/07/10 16:09:24;;;;;;;1.85;1.00;;;;;;;;;;10329661;28;20038;-57
2022/07/10 16:14:25;;;;;;;3.25;1.13;;;;;;;;;;10339837;28;20030;-57
2022/07/10 16:19:26;;;;;;;2.97;1.00;;;;;;;;;;10337695;28;20377;-57
2022/07/10 16:24:27;;;;;;;5.53;1.58;;;;;;;;;;10341012;28;20038;-57
2022/07/10 16:29:29;;;;;;;3.90;1.25;;;;;;;;;;10330902;28;20030;-57
2022/07/10 16:34:30;;;;;;;5.30;1.30;;;;;;;;;;10325307;28;20077;-57
2022/07/10 16:39:30;;;;;;;6.07;1.00;;;;;;;;;;10330046;28;20077;-57
2022/07/10 16:44:31;;;;;;;2.38;1.00;;;;;;;;;;10340573;28;20022;-57
2022/07/10 16:49:31;;;;;;;6.30;1.40;;;;;;;;;;10327998;28;20375;-57
2022/07/10 16:54:32;;;;;;;4.75;1.13;;;;;;;;;;10316991;28;20031;-52
2022/07/10 16:59:33;;;;;;;3.33;1.08;;;;;;;;;;10318895;28;20026;-52
2022/07/10 17:04:37;;;;;;;3.53;1.27;;;;;;;;;;10329473;28;20465;-56
2022/07/10 17:09:38;;;;;;;4.65;1.05;;;;;;;;;;10329271;28;20038;-56
2022/07/10 17:14:39;;;;;;;2.83;1.20;;;;;;;;;;10324108;28;20034;-57
2022/07/10 17:19:40;;;;;;;3.13;1.10;;;;;;;;;;10326882;28;20081;-51
2022/07/10 17:24:40;;;;;;;2.13;0.90;;;;;;;;;;10324947;28;20034;-53
2022/07/10 17:29:43;;;;;;;2.88;1.13;;;;;;;;;;10333266;28;20433;-56
2022/07/10 17:34:43;;;;;;;8.95;1.02;;;;;;;;;;10331017;28;20026;-53
2022/07/10 17:39:44;;;;;;;1.15;0.82;;;;;;;;;;10342659;28;20474;-53
2022/07/10 17:44:44;;;;;;;2.33;0.98;;;;;;;;;;10344392;28;20038;-53
2022/07/10 17:49:45;;;;;;;2.03;0.95;;;;;;;;;;10329053;28;20030;-53
2022/07/10 17:54:46;;;;;;;2.63;1.08;;;;;;;;;;10323942;28;20081;-53
2022/07/10 17:59:46;;;;;;;1.75;1.20;;;;;;;;;;10309383;28;20023;-54
2022/07/10 18:04:47;;;;;;;1.25;1.02;;;;;;;;;;10326239;28;20038;-53
2022/07/10 18:09:48;;;;;;;1.33;0.88;;;;;;;;;;10327583;28;20042;-50
2022/07/10 18:14:48;;;;;;;2.90;0.95;;;;;;;;;;10320101;28;20035;-50
2022/07/10 18:19:49;;;;;;;4.05;0.93;;;;;;;;;;10328027;28;20097;-54
2022/07/10 18:24:50;;;;;;;2.38;0.85;;;;;;;;;;10325966;28;20041;-53
2022/07/10 18:29:51;;;;;;;3.65;1.00;;;;;;;;;;10329548;28;20049;-54
2022/07/10 18:34:51;;;;;;;3.92;0.70;;;;;;;;;;10328547;28;20050;-52
2022/07/10 18:39:52;;;;;;;7.63;1.10;;;;;;;;;;10327026;28;20482;-51
2022/07/10 18:44:52;;;;;;;5.80;1.10;;;;;;;;;;10326882;28;20422;-55
2022/07/10 18:49:53;;;;;;;1.60;0.85;;;;;;;;;;10329115;28;20477;-53
2022/07/10 18:54:53;;;;;;;1.00;0.90;;;;;;;;;;10328153;28;20385;-52
2022/07/10 18:59:54;;;;;;;1.58;0.90;;;;;;;;;;10316643;28;20065;-53
2022/07/10 19:04:55;;;;;;;1.20;0.80;;;;;;;;;;10325744;28;20034;-52
2022/07/10 19:09:55;;;;;;;2.50;1.20;;;;;;;;;;10305323;28;20034;-53
2022/07/10 19:14:56;;;;;;;2.50;1.35;;;;;;;;;;10303213;28;20380;-55
2022/07/10 19:19:57;;;;;;;5.60;1.73;;;;;;;;;;10315400;28;20038;-52
2022/07/10 19:24:58;;;;;;;5.60;1.48;;;;;;;;;;10322713;28;20050;-52
2022/07/10 19:29:59;;;;;;;3.92;1.27;;;;;;;;;;10329935;28;20029;-57
2022/07/10 19:34:59;;;;;;;2.25;1.27;;;;;;;;;;10323619;28;20093;-53
2022/07/10 19:40:03;;;;;;;4.05;1.35;;;;;;;;;;10336343;28;20425;-54
2022/07/10 19:45:05;;;;;;;6.05;1.33;;;;;;;;;;10328556;28;20045;-53
2022/07/10 19:50:07;;;;;;;3.28;1.55;;;;;;;;;;10326784;28;20030;-53
2022/07/10 19:55:08;;;;;;;3.83;1.30;;;;;;;;;;10324130;28;20537;-53
2022/07/10 20:00:09;;;;;;;7.22;1.30;;;;;;;;;;10324543;28;20047;-53
2022/07/10 20:05:10;;;;;;;3.55;1.13;;;;;;;;;;10324114;28;20080;-54
2022/07/10 20:10:11;;;;;;;2.70;1.33;;;;;;;;;;10317668;28;20125;-53
2022/07/10 20:15:12;;;;;;;8.70;1.98;;;;;;;;;;10315429;28;20056;-54
2022/07/10 20:20:13;;;;;;;6.13;1.70;;;;;;;;;;10312065;28;20059;-54
2022/07/10 20:25:13;;;;;;;5.60;1.95;;;;;;;;;;10312530;28;20049;-57
2022/07/10 20:30:15;;;;;;;7.30;1.80;;;;;;;;;;10315813;28;20081;-54
2022/07/10 20:35:15;;;;;;;6.50;2.08;;;;;;;;;;10309485;28;20109;-57
2022/07/10 20:40:17;;;;;;;6.70;1.83;;;;;;;;;;10309092;28;20470;-55
2022/07/10 20:45:18;;;;;;;10.43;1.88;;;;;;;;;;10315338;28;20065;-49
2022/07/10 20:50:18;;;;;;;3.97;1.70;;;;;;;;;;10310887;28;20090;-52
2022/07/10 20:55:22;;;;;;;5.75;1.52;;;;;;;;;;10310760;28;20038;-49
2022/07/10 21:00:22;;;;;;;6.43;2.00;;;;;;;;;;10318390;28;20100;-49
2022/07/10 21:05:27;;;;;;;9.65;1.73;;;;;;;;;;10329449;28;20164;-49
2022/07/10 21:10:41;;;;;;;6.10;1.58;;;;;;;;;;10319199;28;20071;-52
2022/07/10 21:15:41;;;;;;;4.55;1.30;;;;;;;;;;10316287;28;20068;-49
2022/07/10 21:20:42;;;;;;;4.95;1.33;;;;;;;;;;10289985;28;20034;-48
2022/07/10 21:25:46;;;;;;;6.05;1.65;;;;;;;;;;10323940;28;20061;-48
2022/07/10 21:30:46;;;;;;;7.95;2.00;;;;;;;;;;10329709;28;20104;-53
2022/07/10 21:35:47;;;;;;;3.63;1.30;;;;;;;;;;10327594;28;20409;-52
2022/07/10 21:40:48;;;;;;;2.15;1.38;;;;;;;;;;10329362;28;20038;-52
2022/07/10 21:45:48;;;;;;;4.35;1.80;;;;;;;;;;10329133;28;20088;-52
2022/07/10 21:50:49;;;;;;;9.52;1.70;;;;;;;;;;10329116;28;20038;-53
2022/07/10 21:55:49;;;;;;;7.30;2.15;;;;;;;;;;10329162;28;20477;-55
2022/07/10 22:00:50;;;;;;;3.90;1.50;;;;;;;;;;10329418;28;20552;-52
2022/07/10 22:05:51;;;;;;;5.38;1.40;;;;;;;;;;10328146;28;20351;-48
2022/07/10 22:10:51;;;;;;;5.05;1.55;;;;;;;;;;10328303;28;20371;-59
2022/07/10 22:15:52;;;;;;;14.55;1.40;;;;;;;;;;10328208;28;20034;-51
2022/07/10 22:20:52;;;;;;;6.78;1.40;;;;;;;;;;10320950;28;20041;-57
2022/07/10 22:25:53;;;;;;;7.20;1.48;;;;;;;;;;10328314;28;20193;-53
2022/07/10 22:36:14;;;;;;;9.35;1.88;;;;;;;;;;10324983;28;20023;-53
2022/07/10 22:41:15;;;;;;;3.47;1.60;;;;;;;;;;10327508;28;20034;-53
2022/07/10 22:46:16;;;;;;;1.80;1.30;;;;;;;;;;10323651;28;20056;-53
2022/07/10 22:51:16;;;;;;;4.35;1.70;;;;;;;;;;10326659;28;20027;-50
2022/07/10 22:56:17;;;;;;;2.80;1.27;;;;;;;;;;10327400;28;20096;-52
2022/07/10 23:01:18;;;;;;;3.28;1.30;;;;;;;;;;10326482;28;20041;-52
2022/07/10 23:06:21;;;;;;;4.93;1.85;;;;;;;;;;10327484;28;20037;-53
2022/07/10 23:11:22;;;;;;;7.10;1.42;;;;;;;;;;10326053;28;20030;-54
2022/07/10 23:16:23;;;;;;;4.93;1.58;;;;;;;;;;10322068;28;20121;-50
2022/07/10 23:21:23;;;;;;;7.28;1.75;;;;;;;;;;10323458;28;20393;-51
2022/07/10 23:26:24;;;;;;;2.20;1.50;;;;;;;;;;10326475;28;20124;-52
2022/07/10 23:31:24;;;;;;;3.72;1.50;;;;;;;;;;10315934;28;20036;-52
2022/07/10 23:36:25;;;;;;;3.03;1.63;;;;;;;;;;10327129;28;20558;-51
2022/07/10 23:41:26;;;;;;;5.63;1.55;;;;;;;;;;10317539;28;20026;-53
2022/07/10 23:46:26;;;;;;;4.07;1.33;;;;;;;;;;10324475;28;20497;-51
2022/07/10 23:51:27;;;;;;;7.97;1.65;;;;;;;;;;10325020;28;20489;-52
2022/07/10 23:56:27;;;;;;;2.58;1.58;;;;;;;;;;10326686;28;20486;-52
